Terminal Aerodrome Forecast
Issued by NWS

Home | Current Version | Previous Version | Text Only | Print | Product List | Glossary On
Versions: 1 2 3 4 5 6 7 8 9 10 11 12 13 14 15 16 17 18 19 20 21 22 23 24 25 26 27 28 29 30 31
000
FTUS41 KOKX 240240 AAA
TAFGON
TAF AMD
KGON 240240Z 2403/2424 34008KT P6SM SCT100 BKN250
     FM240600 35004KT P6SM FEW250
     FM241400 27007KT P6SM SKC
     FM241600 23010KT P6SM FEW060=

USA.gov is the U.S. government's official web portal to all federal, state and local government web resources and services.